This is the latest recevied weather packets stored in our database for station/object DB0ROB-10. If no packets are shown the sender has not sent any weather packets the latest 10 day(s).
| Time | Temp. | Humidity | Pressure | Rain* | Wind** | Luminosity | Snow |
|---|---|---|---|---|---|---|---|
| 1777878993 | 22.78° C | 26% | 1014.8 hPa | - | - | - | - |
| 1777878092 | 20° C | 30% | 1014.7 hPa | - | - | - | - |
| 1777877191 | 18.89° C | 31% | 1014.7 hPa | - | - | - | - |
| 1777876291 | 20.56° C | 29% | 1014.5 hPa | - | - | - | - |
| 1777875391 | 22.22° C | 26% | 1014.5 hPa | - | - | - | - |
| 1777874490 | 18.89° C | 31% | 1014.5 hPa | - | - | - | - |
| 1777873590 | 17.78° C | 33% | 1014.6 hPa | - | - | - | - |
| 1777872690 | 16.11° C | 36% | 1014.7 hPa | - | - | - | - |
| 1777871790 | 17.78° C | 32% | 1014.6 hPa | - | - | - | - |
| 1777870890 | 20° C | 29% | 1014.5 hPa | - | - | - | - |
| 1777869990 | 18.33° C | 33% | 1014.5 hPa | - | - | - | - |
| 1777869089 | 14.44° C | 42% | 1014.5 hPa | - | - | - | - |
| 1777868189 | 12.78° C | 49% | 1014.5 hPa | - | - | - | - |
| 1777867289 | 12.22° C | 50% | 1014.6 hPa | - | - | - | - |
| 1777866388 | 11.67° C | 52% | 1014.7 hPa | - | - | - | - |
| 1777865488 | 12.22° C | 49% | 1014.8 hPa | - | - | - | - |
| 1777864587 | 12.22° C | 49% | 1014.9 hPa | - | - | - | - |
| 1777863687 | 12.22° C | 50% | 1014.9 hPa | - | - | - | - |
| 1777862787 | 12.22° C | 49% | 1015 hPa | - | - | - | - |
| 1777861886 | 12.78° C | 49% | 1015.1 hPa | - | - | - | - |
| 1777860986 | 13.33° C | 46% | 1015.1 hPa | - | - | - | - |
| 1777860086 | 13.33° C | 47% | 1015 hPa | - | - | - | - |
| 1777859192 | 13.89° C | 45% | 1015 hPa | - | - | - | - |
| 1777858291 | 13.89° C | 45% | 1015.1 hPa | - | - | - | - |
| 1777857391 | 13.33° C | 47% | 1015 hPa | - | - | - | - |
* Rain since midnight (hover to see other rain measurements)
** Current wind speed in m/s (hover to see current wind gust speed)